Terminal Aerodrome Forecast
Issued by NWS Brownsville, TX

Home | Current Version | Previous Version | Text Only | Print | Product List | Glossary On
Versions: 1 2 3 4 5 6 7 8 9 10 11 12 13 14
000
FTUS44 KBRO 270537
TAFHRL
TAF
KHRL 270537Z 2706/2806 35006KT P6SM SCT025 SCT120
      TEMPO 2707/2711 -SHRA BKN020
     FM271400 35010KT P6SM BKN030
     FM271800 01010KT P6SM BKN060
      TEMPO 2718/2722 SHRA BKN020
     FM280000 01005KT P6SM BKN035 PROB30 2800/2806 SHRA BKN025=

USA.gov is the U.S. government's official web portal to all federal, state and local government web resources and services.